Latest Weather Observations for Fortescue Dave Forrest

IDW60801

Issued at 2:02 pm WST Sunday 26 April 2015 (issued every 30 minutes, with the page automatically refreshed every 10 minutes)

About weather observations | Map of weather stations | Latest weather observations for WA | Other Formats
Station Details ID: 505056 Name: FORTESCUE DAVE FORREST Lat: -22.29 Lon: 119.43 Height: 474.6 m
Data from the previous 72 hours. | See also: Recent months for locations in Western Australia
Date/Time
WST
Temp
°C
App
Temp
°C
Dew
Point
Rel
Hum
%
Delta-T
°C
Wind Press
QNH
hPa
Press
MSL
hPa
Rain
since 9 am
mm
Dir
 
Spd
km/h
Gust
km/h
Spd
kts
Gust
kts
26/02:00pm 26.6 21.4 3.6 22 11.7 ESE 20 32 11 17 1018.1 1015.4 0.0
26/01:30pm 26.0 20.8 3.3 23 11.4 ESE 20 30 11 16 1018.3 1015.6 0.0
26/01:00pm 26.0 21.2 5.4 26 10.8 ESE 20 28 11 15 1018.6 1015.9 0.0
26/12:30pm 25.4 21.0 4.8 26 10.6 SE 17 26 9 14 1019.1 1016.4 0.0
26/12:00pm 24.6 19.5 4.1 26 10.4 ESE 20 32 11 17 1019.7 1017.0 0.0
26/11:30am 23.5 18.5 4.8 29 9.5 ESE 20 28 11 15 1020.3 1017.6 0.0
26/11:00am 22.8 17.8 4.7 30 9.1 ESE 20 30 11 16 1020.9 1018.2 0.0
26/10:30am 21.2 16.3 5.0 34 8.1 SE 20 30 11 16 1021.1 1018.4 0.0
26/10:00am 20.3 15.9 4.9 36 7.7 SE 17 26 9 14 1021.6 1018.9 0.0
26/09:30am 19.0 14.9 6.1 43 6.5 SE 17 24 9 13 1021.6 1018.9 0.0
26/09:00am 19.1 15.1 6.8 44 6.3 SE 17 24 9 13 1021.4 1018.7 0.0
26/08:30am 17.1 13.5 6.8 50 5.2 ESE 15 20 8 11 1021.3 1018.6 0.0
26/08:00am 16.0 12.5 7.0 55 4.5 SE 15 22 8 12 1021.2 1018.5 0.0
26/07:30am 14.9 11.7 7.0 59 4.0 SE 13 20 7 11 1020.8 1018.1 0.0
26/07:00am 14.4 11.2 6.9 60 3.7 ESE 13 20 7 11 1020.8 1018.1 0.0
26/06:30am 14.1 10.9 6.9 62 3.6 SE 13 20 7 11 1020.6 1017.9 0.0
26/06:00am 14.3 10.7 6.7 60 3.8 SE 15 26 8 14 1020.0 1017.4 0.0
26/05:30am 14.6 10.6 6.6 58 4.0 SE 17 28 9 15 1020.0 1017.4 0.0
26/05:00am 14.6 11.1 7.0 60 3.8 SE 15 22 8 12 1019.8 1017.1 0.0
26/04:30am 14.7 11.2 7.2 61 3.8 SE 15 19 8 10 1019.7 1017.0 0.0
26/04:00am 15.0 11.5 7.3 60 3.9 SE 15 22 8 12 1019.5 1016.8 0.0
26/03:30am 15.4 11.2 7.5 59 4.0 SE 19 26 10 14 1019.4 1016.7 0.0
26/03:00am 15.9 11.5 7.5 57 4.3 SE 20 30 11 16 1019.2 1016.5 0.0
26/02:30am 16.1 11.9 7.5 56 4.4 SE 19 28 10 15 1019.6 1016.9 0.0
26/02:00am 16.2 12.4 7.7 57 4.4 SE 17 26 9 14 1019.8 1017.1 0.0
26/01:30am 16.7 13.0 7.8 55 4.6 SE 17 26 9 14 1019.6 1016.9 0.0
26/01:00am 17.0 14.0 7.9 55 4.7 SE 13 20 7 11 1019.8 1017.1 0.0
26/12:30am 17.1 14.3 8.4 56 4.6 SE 13 20 7 11 1019.9 1017.3 0.0
26/12:00am 17.4 15.6 9.3 59 4.3 SE 9 15 5 8 1019.8 1017.1 0.0
 
Date/Time
WST
Temp
°C
App
Temp
°C
Dew
Point
Rel
Hum
%
Delta-T
°C
Wind Press
QNH
hPa
Press
MSL
hPa
Rain
since 9 am
mm
Dir
 
Spd
km/h
Gust
km/h
Spd
kts
Gust
kts
25/11:30pm 17.7 15.7 8.7 55 4.8 SE 9 13 5 7 1020.0 1017.4 0.0
25/11:00pm 18.6 15.7 8.2 50 5.5 ESE 13 19 7 10 1020.3 1017.6 0.0
25/10:30pm 18.7 16.3 8.8 52 5.3 ESE 11 15 6 8 1020.3 1017.6 0.0
25/10:00pm 19.0 16.8 9.3 53 5.2 SE 11 17 6 9 1020.3 1017.6 0.0
25/09:30pm 18.6 17.9 11.5 63 4.0 SE 6 9 3 5 1020.2 1017.5 0.0
25/09:00pm 18.3 17.7 11.8 66 3.6 SSE 6 7 3 4 1020.2 1017.5 0.0
25/08:30pm 18.6 17.3 11.2 62 4.1 SSE 9 11 5 6 1020.0 1017.4 0.0
25/08:00pm 19.2 18.7 10.9 58 4.6 E 4 6 2 3 1019.6 1016.9 0.0
25/07:30pm 19.4 18.5 10.5 56 4.9 E 6 7 3 4 1019.4 1016.7 0.0
25/07:00pm 20.5 20.2 10.2 51 5.7 ESE 2 4 1 2 1019.1 1016.4 0.0
25/06:30pm 21.6 20.2 8.9 44 6.9 ESE 6 13 3 7 1018.6 1015.9 0.0
25/06:00pm 22.3 20.4 9.0 42 7.3 ESE 9 13 5 7 1018.4 1015.7 0.0
25/05:30pm 22.9 20.5 8.5 39 7.8 ESE 11 17 6 9 1018.1 1015.4 0.0
25/05:00pm 23.1 19.9 8.3 38 8.0 SE 15 24 8 13 1017.8 1015.1 0.0
25/04:30pm 23.1 19.0 7.9 37 8.2 SE 19 24 10 13 1017.6 1014.9 0.0
25/04:00pm 23.2 19.2 8.3 38 8.1 SE 19 26 10 14 1017.5 1014.8 0.0
25/03:30pm 23.1 19.1 8.4 39 8.0 SE 19 30 10 16 1017.4 1014.7 0.0
25/03:00pm 22.7 18.5 8.1 39 7.9 SE 20 32 11 17 1017.7 1015.0 0.0
25/02:30pm 22.7 18.0 7.8 38 8.0 SE 22 32 12 17 1017.8 1015.1 0.0
25/02:00pm 22.6 17.9 7.7 38 8.0 SE 22 35 12 19 1017.7 1015.0 0.0
25/01:30pm 22.6 18.3 7.7 38 8.0 SE 20 30 11 16 1017.8 1015.1 0.0
25/01:00pm 23.6 18.7 8.6 38 8.2 SE 24 35 13 19 1018.0 1015.2 0.0
25/12:30pm 22.7 18.1 8.2 39 7.8 SE 22 35 12 19 1018.4 1015.7 0.0
25/12:00pm 22.2 17.2 8.1 40 7.6 ESE 24 35 13 19 1018.8 1016.1 0.0
25/11:30am 21.1 16.8 7.7 42 7.1 ESE 20 32 11 17 1019.3 1016.6 0.0
25/11:00am 21.3 17.0 7.7 41 7.2 SE 20 32 11 17 1019.9 1017.3 0.0
25/10:30am 20.2 15.2 7.9 45 6.5 ESE 24 37 13 20 1020.4 1017.7 0.0
25/10:00am 19.2 13.0 7.8 47 6.0 ESE 30 39 16 21 1020.5 1017.8 0.0
25/09:30am 18.4 11.3 7.9 50 5.5 ESE 35 43 19 23 1020.3 1017.6 0.0
25/09:00am 18.1 12.2 9.2 56 4.8 ESE 30 39 16 21 1020.2 1017.5 -
25/08:30am 17.1 10.8 8.8 58 4.4 ESE 32 43 17 23 1020.2 1017.5 -
25/08:00am 16.5 11.0 9.1 61 3.9 ESE 28 41 15 22 1020.0 1017.4 -
25/07:30am 15.3 10.7 9.5 68 3.1 SE 24 33 13 18 1019.5 1016.8 -
25/07:00am 14.8 11.1 9.4 70 2.8 SE 19 26 10 14 1019.5 1016.8 -
25/06:30am 14.2 11.2 9.4 73 2.5 SE 15 22 8 12 1019.1 1016.4 -
25/06:00am 14.5 11.5 9.4 71 2.7 SE 15 26 8 14 1018.9 1016.2 -
25/05:30am 14.8 11.5 9.6 71 2.8 SE 17 26 9 14 1018.6 1015.9 -
25/05:00am 15.2 11.9 9.6 69 3.0 SE 17 24 9 13 1018.4 1015.7 -
25/04:30am 15.5 11.8 9.6 68 3.1 SE 19 26 10 14 1018.1 1015.4 -
25/04:00am 15.8 12.5 9.6 66 3.3 SE 17 24 9 13 1018.0 1015.2 -
25/03:30am 16.1 13.2 9.7 66 3.4 SE 15 22 8 12 1018.2 1015.5 -
25/03:00am 16.4 13.2 9.9 65 3.5 SE 17 26 9 14 1017.8 1015.1 0.0
25/02:30am 16.8 14.1 10.2 65 3.6 SE 15 22 8 12 1018.0 1015.2 -
25/02:00am 17.0 13.5 10.2 64 3.7 SE 19 24 10 13 1017.7 1015.0 -
25/01:30am 17.3 14.1 10.0 62 4.0 SE 17 20 9 11 1018.1 1015.4 -
25/01:00am 17.6 14.1 10.2 62 4.0 ESE 19 24 10 13 1018.2 1015.5 -
25/12:30am 18.4 14.6 9.9 57 4.6 ESE 20 28 11 15 1018.2 1015.5 -
25/12:00am 18.7 15.1 10.4 58 4.6 SE 20 30 11 16 1018.3 1015.6 -
 
Date/Time
WST
Temp
°C
App
Temp
°C
Dew
Point
Rel
Hum
%
Delta-T
°C
Wind Press
QNH
hPa
Press
MSL
hPa
Rain
since 9 am
mm
Dir
 
Spd
km/h
Gust
km/h
Spd
kts
Gust
kts
24/11:30pm 19.0 15.9 10.4 57 4.7 SE 17 24 9 13 1018.5 1015.8 -
24/11:00pm 19.2 16.9 10.5 57 4.8 SE 13 22 7 12 1018.5 1015.8 -
24/10:30pm 19.4 17.2 10.7 57 4.8 SE 13 20 7 11 1018.6 1015.9 -
24/10:00pm 19.9 18.2 11.2 57 4.9 SE 11 17 6 9 1018.5 1015.8 -
24/09:30pm 20.1 18.0 11.2 56 5.0 SE 13 19 7 10 1018.3 1015.6 -
24/09:00pm 20.6 18.6 11.4 55 5.2 SE 13 19 7 10 1018.1 1015.4 0.0
24/08:30pm 21.1 19.0 11.2 53 5.6 ESE 13 17 7 9 1018.1 1015.4 -
24/08:00pm 21.5 20.2 11.4 52 5.7 SE 9 13 5 7 1018.1 1015.4 -
24/07:30pm 21.8 20.2 11.5 52 5.9 ESE 11 15 6 8 1017.8 1015.1 -
24/07:00pm 21.4 19.7 12.4 56 5.2 ESE 13 17 7 9 1017.7 1015.0 -
24/06:30pm 22.1 20.8 11.2 50 6.2 SE 9 13 5 7 1017.4 1014.7 -
24/06:00pm 22.9 19.9 10.8 46 6.8 ESE 17 24 9 13 1017.0 1014.3 -
24/05:30pm 22.9 19.5 11.3 48 6.6 ESE 20 28 11 15 1016.7 1014.0 -
24/05:00pm 23.5 19.2 10.7 44 7.2 ESE 24 35 13 19 1016.4 1013.7 -
24/04:30pm 23.5 18.8 10.5 43 7.3 ESE 26 32 14 17 1016.2 1013.5 -
24/04:00pm 23.5 19.3 11.1 45 7.1 ESE 24 30 13 16 1016.3 1013.6 -
24/03:30pm 23.6 18.9 10.6 44 7.4 ESE 26 32 14 17 1016.4 1013.7 -
24/03:00pm 23.6 18.9 10.8 44 7.3 ESE 26 37 14 20 1016.3 1013.6 -
24/02:30pm 23.5 18.6 11.3 46 7.0 ESE 28 35 15 19 1016.3 1013.6 -
24/02:00pm 23.1 18.2 11.2 47 6.8 ESE 28 35 15 19 1016.3 1013.6 -
24/01:30pm 22.8 18.7 11.6 49 6.4 ESE 24 37 13 20 1016.5 1013.8 -
24/01:00pm 22.9 18.6 10.8 46 6.8 ESE 24 37 13 20 1016.6 1013.9 -
24/12:30pm 22.5 17.6 11.4 49 6.3 ESE 28 39 15 21 1016.9 1014.2 -
24/12:00pm 21.8 16.9 11.3 51 6.0 ESE 28 35 15 19 1017.3 1014.6 -
24/11:30am 21.1 16.0 10.7 51 5.8 ESE 28 35 15 19 1017.8 1015.1 0.0
24/11:00am 20.7 14.9 10.7 52 5.6 ESE 32 41 17 22 1018.3 1015.6 0.0
24/09:30am 18.2 14.4 11.1 63 3.9 ESE 22 32 12 17 1019.2 1016.5 0.0
24/09:00am 17.1 14.9 12.1 72 2.8 SE 15 22 8 12 1019.1 1016.4 0.0
24/08:30am 16.2 13.4 11.4 73 2.7 SE 17 26 9 14 1019.0 1016.3 0.0
24/08:00am 15.5 12.7 11.4 76 2.3 SE 17 30 9 16 1018.7 1016.0 0.0
24/07:30am 15.0 12.2 11.4 79 2.0 SE 17 24 9 13 1018.5 1015.8 0.0
24/07:00am 14.7 12.6 11.3 80 1.9 SE 13 20 7 11 1018.3 1015.6 0.0
24/06:30am 14.7 11.8 11.1 79 2.0 SE 17 24 9 13 1018.1 1015.4 0.0
24/06:00am 14.7 11.8 11.1 79 2.0 SE 17 26 9 14 1017.6 1014.9 0.0
24/05:30am 14.8 11.9 11.1 78 2.0 SE 17 28 9 15 1017.5 1014.8 0.0
24/05:00am 15.1 11.6 11.0 76 2.2 SE 20 32 11 17 1017.1 1014.4 0.0
24/04:30am 15.2 12.0 11.2 77 2.2 SE 19 30 10 16 1017.0 1014.3 0.0
24/04:00am 15.3 12.1 11.2 76 2.2 SE 19 28 10 15 1017.1 1014.4 0.0
24/03:30am 15.4 12.1 11.5 77 2.1 SE 20 28 11 15 1017.1 1014.4 0.0
24/03:00am 15.3 12.6 11.6 78 2.0 SE 17 26 9 14 1017.4 1014.7 0.0
24/02:30am 15.2 12.6 11.9 81 1.8 SE 17 26 9 14 1017.4 1014.7 0.0
24/02:00am 15.4 13.1 11.9 79 1.9 SE 15 22 8 12 1017.4 1014.7 0.0
24/01:30am 15.6 13.1 12.2 80 1.9 SE 17 24 9 13 1017.4 1014.7 0.0
24/01:00am 16.0 12.9 12.3 79 2.1 SE 20 30 11 16 1017.6 1014.9 0.0
24/12:30am 16.2 13.2 12.5 79 2.1 SE 20 32 11 17 1018.0 1015.2 0.0
24/12:00am 16.5 13.5 12.6 78 2.2 SE 20 30 11 16 1017.8 1015.1 0.0
 
Date/Time
WST
Temp
°C
App
Temp
°C
Dew
Point
Rel
Hum
%
Delta-T
°C
Wind Press
QNH
hPa
Press
MSL
hPa
Rain
since 9 am
mm
Dir
 
Spd
km/h
Gust
km/h
Spd
kts
Gust
kts
23/11:30pm 16.6 14.2 12.7 78 2.2 SE 17 26 9 14 1018.1 1015.4 0.0
23/11:00pm 17.0 14.2 12.6 75 2.5 SE 19 26 10 14 1018.2 1015.5 0.0
23/10:30pm 17.3 14.3 12.5 73 2.7 SE 20 30 11 16 1018.2 1015.5 0.0
23/10:00pm 17.7 14.3 12.4 71 3.0 SE 22 30 12 16 1018.2 1015.5 0.0
23/09:30pm 17.8 14.8 12.6 71 3.0 SE 20 32 11 17 1018.0 1015.2 0.0
23/09:00pm 18.0 15.1 12.8 71 3.0 SE 20 30 11 16 1017.8 1015.1 0.0
23/08:30pm 18.4 15.6 13.1 71 3.1 SE 20 33 11 18 1017.6 1014.9 0.0
23/08:00pm 18.9 16.2 12.9 68 3.4 SE 19 30 10 16 1017.4 1014.7 0.0
23/07:30pm 19.3 16.3 12.7 65 3.8 SE 20 26 11 14 1017.1 1014.4 0.0
23/07:00pm 19.6 17.4 13.2 66 3.7 SE 17 24 9 13 1016.8 1014.1 0.0
23/06:30pm 19.8 17.5 12.9 64 4.0 SE 17 24 9 13 1016.6 1013.9 0.0
23/06:00pm 20.1 17.8 13.1 64 4.1 SE 17 28 9 15 1016.4 1013.7 0.0
23/05:30pm 20.7 17.5 13.1 61 4.4 SE 22 33 12 18 1016.0 1013.2 0.0
23/05:00pm 21.3 17.7 13.2 60 4.7 SE 24 33 13 18 1015.7 1012.9 0.0
23/04:30pm 22.0 18.6 13.7 59 4.9 SE 24 35 13 19 1015.3 1012.6 0.0
23/04:00pm 22.1 19.3 13.2 57 5.2 SE 20 32 11 17 1015.2 1012.5 0.0
23/03:30pm 22.2 19.0 13.1 56 5.3 SE 22 33 12 18 1015.2 1012.5 0.0
23/03:00pm 21.9 18.8 13.5 59 5.0 SE 22 32 12 17 1015.2 1012.5 0.0
23/02:30pm 21.8 19.0 13.2 58 5.0 SE 20 32 11 17 1015.2 1012.5 0.0

Other Formats:

Comma delimited format used in spreadsheet applications
http://www.bom.gov.au/fwo/IDW60801/IDW60801.99736.axf

JavaScript Object Notation format (JSON) in row-major order
http://www.bom.gov.au/fwo/IDW60801/IDW60801.99736.json